Time;durP1;ratioP1;P1;durP2;ratioP2;P2;SDS_P1;SDS_P2;PMS_P1;PMS_P2;Temp;Humidity;BMP_temperature;BMP_pressure;BME280_temperature;BME280_humidity;BME280_pressure;Samples;Min_cycle;Max_cycle;Signal;HPM_P1;HPM_P2
2024/03/16 00:01:50;;;;;;;9.75;5.85;;;;;;;13.29;90.64;99034.94;5094419;28;20077;-49
2024/03/16 00:04:16;;;;;;;9.00;5.88;;;;;;;13.22;91.84;99039.41;5094477;28;20032;-49
2024/03/16 00:06:41;;;;;;;10.25;7.15;;;;;;;13.28;92.88;99039.41;5094352;28;20451;-49
2024/03/16 00:09:08;;;;;;;17.38;12.68;;;;;;;13.47;93.54;99040.34;5093081;28;20485;-49
2024/03/16 00:11:34;;;;;;;10.80;8.45;;;;;;;13.78;93.95;99046.66;5094579;28;20524;-49
2024/03/16 00:14:00;;;;;;;9.10;6.93;;;;;;;13.97;93.21;99039.66;5093520;28;20102;-49
2024/03/16 00:16:27;;;;;;;8.20;5.90;;;;;;;14.06;91.87;99040.22;5094188;28;20550;-48
2024/03/16 00:18:53;;;;;;;11.95;6.88;;;;;;;14.12;91.66;99044.63;5092966;28;20031;-49
2024/03/16 00:21:19;;;;;;;12.30;10.98;;;;;;;14.02;90.61;99039.03;5094027;28;20077;-48
2024/03/16 00:23:44;;;;;;;9.45;6.60;;;;;;;13.81;90.54;99040.19;5093954;28;20052;-49
2024/03/16 00:26:11;;;;;;;10.10;6.95;;;;;;;13.70;91.19;99041.66;5094045;28;20035;-48
2024/03/16 00:28:37;;;;;;;9.80;8.38;;;;;;;13.96;91.98;99036.22;5092681;28;20115;-49
2024/03/16 00:31:03;;;;;;;10.02;8.15;;;;;;;14.33;91.81;99043.47;5092810;28;20020;-49
2024/03/16 00:33:29;;;;;;;10.88;5.80;;;;;;;14.56;90.29;99041.03;5093909;28;20072;-49
2024/03/16 00:35:54;;;;;;;8.68;7.15;;;;;;;14.68;89.46;99040.34;5094128;28;20111;-48
2024/03/16 00:38:20;;;;;;;7.20;6.00;;;;;;;14.80;88.48;99043.06;5093826;28;20049;-48
2024/03/16 00:40:46;;;;;;;7.22;5.60;;;;;;;14.89;87.55;99037.28;5092455;28;20024;-49
2024/03/16 00:43:17;;;;;;;7.40;5.40;;;;;;;15.04;87.29;99036.09;5093667;28;20067;-49
2024/03/16 00:45:43;;;;;;;6.97;6.03;;;;;;;14.95;86.22;99031.13;5093653;28;20546;-49
2024/03/16 00:48:09;;;;;;;13.18;11.70;;;;;;;14.64;85.70;99036.50;5075855;28;20016;-49
2024/03/16 00:50:35;;;;;;;6.97;6.28;;;;;;;14.37;85.81;99037.53;5092240;28;20024;-49
2024/03/16 00:53:01;;;;;;;11.18;8.50;;;;;;;14.22;86.60;99044.16;5092272;28;20489;-49
2024/03/16 00:55:27;;;;;;;10.63;5.68;;;;;;;14.31;87.25;99042.88;5075703;28;20470;-49
2024/03/16 00:57:52;;;;;;;8.80;5.43;;;;;;;14.41;86.81;99037.09;5092083;28;20034;-49
2024/03/16 01:00:18;;;;;;;19.80;17.80;;;;;;;14.31;86.74;99042.88;5093451;28;20020;-49
2024/03/16 01:02:44;;;;;;;9.63;7.20;;;;;;;14.33;86.02;99048.75;5093276;28;20109;-49
2024/03/16 01:05:10;;;;;;;10.45;5.85;;;;;;;14.21;86.70;99053.13;5092266;28;20398;-49
2024/03/16 01:07:35;;;;;;;14.38;10.00;;;;;;;14.13;86.24;99056.81;5091897;28;20120;-49
2024/03/16 01:10:02;;;;;;;8.38;6.82;;;;;;;14.04;86.36;99056.25;5091899;28;20617;-49
2024/03/16 01:12:27;;;;;;;8.25;6.68;;;;;;;13.79;86.25;99061.50;5093396;28;20444;-49
2024/03/16 01:14:53;;;;;;;8.38;6.80;;;;;;;13.47;86.75;99064.06;5093240;28;20023;-49
2024/03/16 01:17:20;;;;;;;11.27;7.78;;;;;;;13.49;88.93;99062.03;5093103;28;20082;-49
2024/03/16 01:19:46;;;;;;;8.40;7.50;;;;;;;13.72;89.17;99072.09;5093307;28;20040;-49
2024/03/16 01:22:12;;;;;;;9.10;6.18;;;;;;;13.81;89.02;99071.84;5092667;28;20150;-49
2024/03/16 01:24:38;;;;;;;8.15;5.90;;;;;;;13.70;88.93;99063.56;5090839;28;20531;-49
2024/03/16 01:27:03;;;;;;;83.55;76.50;;;;;;;13.76;89.23;99077.72;5092904;28;20102;-49
2024/03/16 01:29:29;;;;;;;45.97;42.08;;;;;;;13.89;89.83;99074.22;5092840;28;20028;-49
2024/03/16 01:31:54;;;;;;;6.45;5.78;;;;;;;13.84;88.80;99072.19;5091495;28;20020;-48
2024/03/16 01:34:20;;;;;;;8.20;6.53;;;;;;;13.67;88.47;99081.66;5092758;28;20402;-49
2024/03/16 01:36:46;;;;;;;9.15;5.65;;;;;;;13.37;88.55;99074.25;5091424;28;20024;-49
2024/03/16 01:39:13;;;;;;;8.10;6.70;;;;;;;13.13;89.05;99073.91;5092697;28;20490;-49
2024/03/16 01:41:40;;;;;;;15.75;9.68;;;;;;;13.24;91.28;99072.47;5092416;28;20027;-49
2024/03/16 01:44:12;;;;;;;9.60;7.70;;;;;;;13.38;90.65;99076.69;5092552;28;20944;-49
2024/03/16 01:46:41;;;;;;;41.42;37.63;;;;;;;13.65;91.26;99062.59;5092436;28;20024;-49
2024/03/16 01:49:08;;;;;;;12.45;11.15;;;;;;;13.69;89.80;99071.69;5092486;28;20031;-49
2024/03/16 01:51:39;;;;;;;10.10;7.68;;;;;;;13.77;90.02;99068.81;5091383;28;20036;-49
2024/03/16 01:54:05;;;;;;;12.10;10.90;;;;;;;13.85;89.60;99065.13;5091418;28;20585;-49
2024/03/16 01:56:32;;;;;;;10.70;7.68;;;;;;;13.81;89.31;99071.84;5092357;28;20028;-49
2024/03/16 01:58:58;;;;;;;6.88;5.32;;;;;;;13.81;87.67;99066.56;5092286;28;20028;-49
2024/03/16 02:01:25;;;;;;;13.77;8.10;;;;;;;13.81;87.57;99064.72;5092279;28;20069;-49
2024/03/16 02:03:54;;;;;;;8.55;6.45;;;;;;;13.76;87.18;99068.00;5090955;28;20035;-49
2024/03/16 02:06:20;;;;;;;9.25;6.68;;;;;;;13.83;88.02;99060.03;5092183;28;20040;-49
2024/03/16 02:08:46;;;;;;;13.20;9.75;;;;;;;14.09;87.78;99064.34;5091151;28;20502;-49
2024/03/16 02:11:11;;;;;;;6.93;4.45;;;;;;;14.08;85.17;99060.06;5092144;28;20111;-49
2024/03/16 02:13:37;;;;;;;6.25;3.88;;;;;;;13.78;84.49;99063.31;5092110;28;20477;-49
2024/03/16 02:16:03;;;;;;;8.27;4.95;;;;;;;13.45;84.35;99065.31;5092339;28;20108;-49
2024/03/16 02:18:29;;;;;;;8.73;5.20;;;;;;;13.39;85.76;99069.59;5092338;28;20024;-49
2024/03/16 02:20:56;;;;;;;6.90;5.32;;;;;;;13.36;86.38;99073.47;5091986;28;20549;-49
2024/03/16 02:23:22;;;;;;;8.85;6.90;;;;;;;13.28;86.44;99070.19;5091817;28;20121;-49
2024/03/16 02:25:48;;;;;;;9.57;5.13;;;;;;;13.25;87.10;99066.16;5091851;28;20059;-49
2024/03/16 02:28:14;;;;;;;8.00;6.82;;;;;;;13.27;87.83;99065.97;5090950;28;20193;-49
2024/03/16 02:30:39;;;;;;;11.23;9.15;;;;;;;13.45;88.53;99070.59;5090860;28;20032;-49
2024/03/16 02:33:09;;;;;;;96.22;88.53;;;;;;;13.60;88.61;99065.84;5091884;28;20028;-49
2024/03/16 02:35:35;;;;;;;13.63;10.63;;;;;;;13.75;88.90;99066.38;5091360;28;20047;-49
2024/03/16 02:38:01;;;;;;;11.13;7.35;;;;;;;13.93;89.25;99072.78;5091946;28;20398;-49
2024/03/16 02:40:28;;;;;;;9.20;7.35;;;;;;;14.07;88.12;99065.59;5091804;28;20478;-49
2024/03/16 02:42:53;;;;;;;12.45;11.23;;;;;;;14.14;87.85;99069.78;5091687;28;20035;-49
2024/03/16 02:45:19;;;;;;;10.82;8.43;;;;;;;14.30;87.58;99078.22;5091764;28;20409;-49
2024/03/16 02:47:45;;;;;;;10.73;6.60;;;;;;;14.22;86.25;99079.28;5090735;28;20404;-49
2024/03/16 02:50:10;;;;;;;20.17;16.35;;;;;;;14.21;86.81;99085.59;5091709;28;20031;-49
2024/03/16 02:52:37;;;;;;;12.15;7.88;;;;;;;14.28;86.93;99085.53;5091737;28;20043;-49
2024/03/16 02:55:03;;;;;;;13.57;11.75;;;;;;;14.49;86.44;99084.38;5091631;28;20097;-47
2024/03/16 02:57:29;;;;;;;26.05;22.67;;;;;;;14.41;85.46;99093.38;5090333;28;20086;-47
2024/03/16 02:59:54;;;;;;;10.07;9.13;;;;;;;14.39;85.69;99087.50;5092001;28;20024;-47
2024/03/16 03:02:23;;;;;;;8.10;6.35;;;;;;;14.37;85.27;99090.34;5091747;28;20036;-47
2024/03/16 03:04:50;;;;;;;23.00;20.58;;;;;;;14.40;85.86;99091.72;5091477;28;20064;-47
2024/03/16 03:07:17;;;;;;;9.70;6.25;;;;;;;14.61;84.94;99093.25;5091559;28;20035;-47
2024/03/16 03:09:43;;;;;;;12.88;6.68;;;;;;;14.47;83.50;99102.25;5090544;28;20028;-47
2024/03/16 03:12:09;;;;;;;12.05;8.77;;;;;;;14.06;83.40;99098.25;5091571;28;20071;-47
2024/03/16 03:14:35;;;;;;;12.98;9.38;;;;;;;13.91;84.82;99106.47;5091551;28;20099;-47
2024/03/16 03:17:01;;;;;;;8.35;5.57;;;;;;;13.81;84.24;99104.28;5091505;28;20064;-47
2024/03/16 03:19:27;;;;;;;13.00;10.05;;;;;;;13.52;84.87;99110.91;5091532;28;20031;-47
2024/03/16 03:21:52;;;;;;;12.85;8.20;;;;;;;13.58;86.59;99116.19;5091191;28;20051;-48
2024/03/16 03:24:18;;;;;;;28.13;25.63;;;;;;;13.84;87.03;99116.25;5090167;28;20028;-47
2024/03/16 03:26:44;;;;;;;11.43;9.48;;;;;;;14.18;86.69;99113.22;5090048;28;20039;-47
2024/03/16 03:29:09;;;;;;;8.85;6.00;;;;;;;14.20;84.69;99118.28;5090122;28;20028;-47
2024/03/16 03:31:35;;;;;;;9.55;8.40;;;;;;;13.87;83.43;99111.38;5089982;28;20028;-47
2024/03/16 03:34:01;;;;;;;10.98;8.10;;;;;;;13.45;83.65;99108.31;5089996;28;20036;-47
2024/03/16 03:36:28;;;;;;;23.42;21.20;;;;;;;13.13;84.64;99110.00;5091282;28;20024;-46
2024/03/16 03:38:54;;;;;;;24.70;22.30;;;;;;;12.94;85.71;99116.94;5091323;28;20099;-47
2024/03/16 03:41:20;;;;;;;8.02;7.00;;;;;;;13.02;87.07;99123.78;5091240;28;20043;-47
2024/03/16 03:43:57;;;;;;;7.20;6.32;;;;;;;13.30;88.06;99124.38;5090202;28;20058;-47
2024/03/16 03:46:49;;;;;;;11.68;10.45;;;;;;;13.73;87.43;99129.09;5091121;28;20490;-47
2024/03/16 03:49:25;;;;;;;32.33;29.45;;;;;;;14.04;86.46;99134.63;5094380;28;20077;-47
2024/03/16 03:51:54;;;;;;;9.48;5.43;;;;;;;14.12;84.90;99140.44;5094716;28;20023;-47
2024/03/16 03:54:20;;;;;;;6.35;3.95;;;;;;;14.03;83.36;99136.47;5093459;28;20023;-47
2024/03/16 03:56:46;;;;;;;12.65;5.25;;;;;;;13.89;82.73;99141.00;5093350;28;20058;-47
2024/03/16 03:59:11;;;;;;;11.77;10.57;;;;;;;13.75;82.78;99140.22;5076487;28;20070;-47
2024/03/16 04:01:37;;;;;;;6.80;4.95;;;;;;;13.74;83.19;99143.06;5094499;28;20028;-47
2024/03/16 04:04:04;;;;;;;7.32;5.65;;;;;;;13.90;83.41;99147.06;5093255;28;20036;-47
2024/03/16 04:06:31;;;;;;;46.55;41.85;;;;;;;13.70;82.57;99147.16;5094678;28;20406;-47
2024/03/16 04:08:57;;;;;;;51.20;43.70;;;;;;;13.31;83.00;99157.63;5093424;28;20478;-47
2024/03/16 04:11:23;;;;;;;10.32;7.07;;;;;;;13.13;85.33;99160.84;5093199;28;20028;-47
2024/03/16 04:13:48;;;;;;;15.65;14.15;;;;;;;12.95;86.42;99169.38;5093319;28;20046;-47
2024/03/16 04:16:14;;;;;;;19.08;9.23;;;;;;;12.81;87.37;99167.78;5093238;28;20115;-47
2024/03/16 04:18:42;;;;;;;11.80;10.70;;;;;;;13.12;90.06;99168.97;5094298;28;20106;-47
2024/03/16 04:21:08;;;;;;;20.23;14.32;;;;;;;13.52;90.70;99175.03;5094197;28;20028;-46
2024/03/16 04:23:34;;;;;;;10.60;8.13;;;;;;;13.78;91.61;99178.56;5093818;28;20422;-47
2024/03/16 04:26:00;;;;;;;9.40;5.70;;;;;;;13.96;90.27;99183.16;5094124;28;20393;-47
2024/03/16 04:28:25;;;;;;;27.38;24.67;;;;;;;13.76;88.45;99191.16;5094090;28;20028;-47
2024/03/16 04:30:52;;;;;;;11.38;9.98;;;;;;;13.52;88.78;99188.22;5093952;28;20085;-47
2024/03/16 04:33:18;;;;;;;11.98;10.73;;;;;;;13.44;90.34;99187.59;5094003;28;20107;-47
2024/03/16 04:35:46;;;;;;;9.75;8.82;;;;;;;13.28;90.58;99181.75;5094174;28;20103;-46
2024/03/16 04:38:13;;;;;;;15.73;14.13;;;;;;;13.10;91.54;99181.53;5093882;28;20031;-45
2024/03/16 04:40:38;;;;;;;12.00;10.18;;;;;;;12.82;93.74;99192.28;5093713;28;20031;-45
2024/03/16 04:43:04;;;;;;;13.95;11.38;;;;;;;12.52;95.79;99190.06;5093704;28;20024;-45
2024/03/16 04:45:30;;;;;;;15.70;10.65;;;;;;;12.28;98.32;99197.47;5093621;28;20028;-46
2024/03/16 04:47:56;;;;;;;12.52;9.93;;;;;;;12.11;100.00;99193.56;5093642;28;20397;-48
2024/03/16 04:50:22;;;;;;;20.55;18.65;;;;;;;12.11;100.00;99201.47;5092310;28;20065;-47
2024/03/16 04:52:48;;;;;;;24.52;21.95;;;;;;;12.30;100.00;99197.28;5092231;28;20490;-47
2024/03/16 04:55:13;;;;;;;16.75;9.73;;;;;;;12.27;100.00;99200.31;5093526;28;20034;-47
2024/03/16 04:57:39;;;;;;;10.35;8.82;;;;;;;12.17;100.00;99200.69;5093451;28;20024;-47
2024/03/16 05:00:06;;;;;;;56.80;51.53;;;;;;;12.24;100.00;99198.88;5093135;28;20020;-47
2024/03/16 05:02:32;;;;;;;15.88;13.45;;;;;;;12.51;100.00;99191.84;5093300;28;20056;-47
2024/03/16 05:04:58;;;;;;;43.92;37.63;;;;;;;12.71;100.00;99196.34;5092343;28;20524;-47
2024/03/16 05:07:24;;;;;;;15.82;10.93;;;;;;;12.85;100.00;99197.16;5093521;28;20111;-47
2024/03/16 05:09:50;;;;;;;33.75;30.85;;;;;;;12.93;100.00;99202.22;5092020;28;20052;-47
2024/03/16 05:12:18;;;;;;;12.52;7.05;;;;;;;12.95;100.00;99202.84;5093403;28;20554;-47
2024/03/16 05:14:43;;;;;;;9.38;6.00;;;;;;;12.73;100.00;99207.47;5093191;28;20055;-47
2024/03/16 05:17:09;;;;;;;25.88;23.15;;;;;;;12.43;100.00;99221.00;5091767;28;20059;-47
2024/03/16 05:19:35;;;;;;;9.90;6.05;;;;;;;12.14;100.00;99220.31;5091743;28;20039;-47
2024/03/16 05:22:00;;;;;;;11.15;6.00;;;;;;;11.90;100.00;99223.47;5092761;28;20043;-46
2024/03/16 05:24:27;;;;;;;13.93;5.40;;;;;;;11.71;100.00;99230.19;5091680;28;20039;-47
2024/03/16 05:26:53;;;;;;;17.00;8.77;;;;;;;11.57;100.00;99230.13;5092879;28;20031;-47
2024/03/16 05:29:19;;;;;;;31.50;28.30;;;;;;;11.57;100.00;99217.00;5092869;28;20024;-47
2024/03/16 05:31:59;;;;;;;29.73;26.92;;;;;;;11.92;100.00;99216.97;5091443;28;20059;-47
2024/03/16 05:34:25;;;;;;;5.97;4.13;;;;;;;11.82;100.00;99220.97;5092807;28;20088;-47
2024/03/16 05:36:51;;;;;;;6.20;3.58;;;;;;;11.44;100.00;99223.97;5091418;28;20082;-47
2024/03/16 05:39:17;;;;;;;9.30;4.45;;;;;;;11.19;100.00;99229.69;5091416;28;20486;-48
2024/03/16 05:41:43;;;;;;;14.20;12.23;;;;;;;11.13;100.00;99230.44;5092776;28;20039;-47
2024/03/16 05:44:10;;;;;;;9.52;5.15;;;;;;;11.03;100.00;99240.44;5092660;28;20036;-47
2024/03/16 05:46:35;;;;;;;10.63;5.32;;;;;;;10.90;100.00;99239.31;5091257;28;20024;-47
2024/03/16 05:49:01;;;;;;;13.32;7.53;;;;;;;10.85;100.00;99240.91;5092598;28;20020;-47
2024/03/16 05:51:28;;;;;;;11.35;6.50;;;;;;;10.83;100.00;99245.53;5092506;28;20496;-48
2024/03/16 05:53:54;;;;;;;9.98;6.10;;;;;;;10.79;100.00;99245.09;5091156;28;20028;-48
2024/03/16 05:56:21;;;;;;;16.20;11.13;;;;;;;10.85;100.00;99251.41;5091094;28;20034;-48
2024/03/16 05:58:47;;;;;;;32.05;26.63;;;;;;;11.04;100.00;99252.56;5091067;28;20024;-48
2024/03/16 06:01:13;;;;;;;14.00;10.43;;;;;;;11.28;100.00;99265.31;5091064;28;20035;-48
2024/03/16 06:03:39;;;;;;;9.32;7.55;;;;;;;11.50;100.00;99258.19;5091036;28;20046;-48
2024/03/16 06:06:05;;;;;;;8.45;5.55;;;;;;;11.41;100.00;99261.97;5092275;28;20436;-48
2024/03/16 06:08:31;;;;;;;13.73;10.73;;;;;;;11.20;100.00;99265.44;5092258;28;20107;-48
2024/03/16 06:10:57;;;;;;;7.18;4.60;;;;;;;11.10;100.00;99273.63;5091502;28;20031;-48
2024/03/16 06:13:23;;;;;;;14.98;5.07;;;;;;;11.10;100.00;99272.84;5092141;28;20092;-49
2024/03/16 06:15:49;;;;;;;10.80;7.93;;;;;;;11.27;100.00;99273.38;5090814;28;20114;-49
2024/03/16 06:18:14;;;;;;;26.00;19.50;;;;;;;11.40;100.00;99278.75;5091132;28;20063;-48
2024/03/16 06:20:40;;;;;;;14.27;9.50;;;;;;;11.47;100.00;99268.25;5090707;28;20039;-49
2024/03/16 06:23:08;;;;;;;16.67;15.07;;;;;;;11.56;100.00;99267.94;5091810;28;20084;-49
2024/03/16 06:26:03;;;;;;;34.92;31.42;;;;;;;11.68;100.00;99280.56;5092020;28;20102;-48
2024/03/16 06:28:21;;;;;;;;;;;;;;;11.69;100.00;99280.38;5091880;28;20101;-49
2024/03/16 06:30:55;;;;;;;10.18;4.45;;;;;;;11.58;100.00;99286.94;5090629;28;20002;-49
2024/03/16 06:33:30;;;;;;;10.32;7.35;;;;;;;11.58;100.00;99286.94;5091934;28;20081;-49
2024/03/16 06:35:56;;;;;;;9.55;5.18;;;;;;;12.26;100.00;99290.81;5090609;28;20031;-49
2024/03/16 06:38:22;;;;;;;6.43;4.13;;;;;;;13.30;100.00;99295.72;5090527;28;20040;-49
2024/03/16 06:40:49;;;;;;;7.30;3.83;;;;;;;14.29;100.00;99290.47;5091816;28;20382;-49
2024/03/16 06:43:15;;;;;;;8.02;5.60;;;;;;;15.25;96.13;99292.16;5091685;28;20024;-49
2024/03/16 06:45:44;;;;;;;9.15;7.97;;;;;;;16.23;94.59;99293.22;5091749;28;20028;-47
2024/03/16 06:48:10;;;;;;;8.80;5.80;;;;;;;17.39;89.45;99292.25;5091798;28;20107;-47
2024/03/16 06:50:36;;;;;;;6.50;4.22;;;;;;;18.22;85.28;99293.81;5091669;28;20466;-47
2024/03/16 06:53:02;;;;;;;6.03;3.30;;;;;;;18.54;79.52;99290.72;5090715;28;20119;-46
2024/03/16 06:55:28;;;;;;;8.55;3.90;;;;;;;18.49;79.88;99288.78;5091637;28;20024;-47
2024/03/16 06:57:54;;;;;;;5.07;2.70;;;;;;;19.19;79.71;99300.09;5090421;28;20028;-47
2024/03/16 07:00:19;;;;;;;20.77;18.75;;;;;;;19.13;80.17;99299.19;5091647;28;20081;-47
2024/03/16 07:02:45;;;;;;;5.32;3.38;;;;;;;18.33;78.34;99311.59;5091517;28;20036;-47
2024/03/16 07:05:11;;;;;;;8.30;6.05;;;;;;;17.51;83.02;99315.09;5091916;28;20028;-47
2024/03/16 07:07:36;;;;;;;12.80;9.50;;;;;;;17.69;87.56;99322.16;5091594;28;20032;-45
2024/03/16 07:10:05;;;;;;;8.40;6.90;;;;;;;18.49;86.70;99318.00;5091831;28;20508;-46
2024/03/16 07:12:32;;;;;;;15.55;10.57;;;;;;;19.11;85.41;99327.91;5090239;28;20103;-46
2024/03/16 07:14:57;;;;;;;7.50;3.50;;;;;;;19.46;80.43;99328.75;5090224;28;20088;-46
2024/03/16 07:17:26;;;;;;;6.82;3.30;;;;;;;19.08;80.02;99316.97;5091493;28;20107;-46
2024/03/16 07:19:53;;;;;;;29.17;26.58;;;;;;;17.99;83.15;99313.28;5091449;28;20027;-45
2024/03/16 07:22:18;;;;;;;7.05;5.07;;;;;;;17.06;86.23;99317.44;5093026;28;20048;-45
2024/03/16 07:24:44;;;;;;;16.85;14.02;;;;;;;15.82;88.66;99325.69;5093997;28;20379;-46
2024/03/16 07:27:10;;;;;;;7.63;3.65;;;;;;;14.93;90.83;99323.06;5093936;28;20028;-45
2024/03/16 07:29:35;;;;;;;25.70;23.23;;;;;;;14.56;95.50;99336.06;5095263;28;20070;-45
2024/03/16 07:32:02;;;;;;;25.00;22.60;;;;;;;14.72;99.87;99340.88;5095135;28;20541;-45
2024/03/16 07:34:28;;;;;;;56.00;51.03;;;;;;;15.29;100.00;99348.03;5093758;28;20115;-47
2024/03/16 07:36:53;;;;;;;38.38;34.67;;;;;;;15.80;100.00;99352.34;5093788;28;20162;-47
2024/03/16 07:39:21;;;;;;;8.32;4.32;;;;;;;16.17;100.00;99350.53;5093738;28;20107;-47
2024/03/16 07:41:46;;;;;;;11.75;10.52;;;;;;;16.50;99.14;99353.84;5094849;28;20031;-47
2024/03/16 07:44:12;;;;;;;18.85;17.10;;;;;;;16.64;98.52;99347.38;5095036;28;20053;-47
2024/03/16 07:46:38;;;;;;;10.23;8.85;;;;;;;16.91;98.45;99353.16;5094836;28;20059;-47
2024/03/16 07:49:04;;;;;;;17.83;7.25;;;;;;;17.41;97.42;99354.66;5094929;28;20052;-46
2024/03/16 07:51:29;;;;;;;12.45;6.88;;;;;;;18.01;96.04;99356.34;5093513;28;20024;-45
2024/03/16 07:53:55;;;;;;;13.02;9.57;;;;;;;18.33;92.80;99350.63;5094822;28;20024;-45
2024/03/16 07:56:21;;;;;;;11.80;7.13;;;;;;;18.77;91.48;99349.13;5093385;28;20157;-47
2024/03/16 07:58:47;;;;;;;7.90;5.22;;;;;;;19.02;88.26;99358.63;5093413;28;20505;-47
2024/03/16 08:01:13;;;;;;;15.63;12.98;;;;;;;19.25;86.54;99360.34;5094926;28;20028;-47
2024/03/16 08:03:39;;;;;;;8.23;6.35;;;;;;;19.66;82.84;99361.00;5093154;28;20042;-48
2024/03/16 08:06:07;;;;;;;19.42;17.10;;;;;;;20.30;79.67;99362.44;5093248;28;20024;-47
2024/03/16 08:08:33;;;;;;;11.63;10.05;;;;;;;20.65;78.88;99361.31;5095025;28;20110;-47
2024/03/16 08:10:59;;;;;;;61.67;56.70;;;;;;;21.74;78.00;99362.03;5094515;28;20046;-47
2024/03/16 08:13:25;;;;;;;6.30;3.90;;;;;;;23.42;74.85;99358.38;5093087;28;20478;-47
2024/03/16 08:15:52;;;;;;;7.78;3.95;;;;;;;25.35;68.88;99356.28;5093378;28;20034;-47
2024/03/16 08:18:17;;;;;;;7.05;3.75;;;;;;;27.06;62.02;99349.50;5094533;28;20099;-47
2024/03/16 08:20:43;;;;;;;7.70;3.40;;;;;;;27.57;56.26;99356.78;5076111;28;20032;-48
2024/03/16 08:23:09;;;;;;;5.70;2.55;;;;;;;26.64;55.97;99354.69;5092737;28;20136;-48
2024/03/16 08:25:35;;;;;;;7.85;2.78;;;;;;;25.37;54.53;99367.56;5094150;28;20402;-48
2024/03/16 08:28:01;;;;;;;7.53;2.80;;;;;;;24.54;55.08;99359.19;5094150;28;20024;-48
2024/03/16 08:30:26;;;;;;;6.90;2.42;;;;;;;24.26;54.14;99361.44;5094018;28;20035;-47
2024/03/16 08:32:52;;;;;;;6.22;2.47;;;;;;;25.29;51.57;99367.09;5093741;28;20387;-48
2024/03/16 08:35:19;;;;;;;8.60;2.35;;;;;;;26.60;48.17;99356.34;5093535;28;20037;-48
2024/03/16 08:37:45;;;;;;;6.82;3.33;;;;;;;27.80;45.16;99356.91;5093893;28;20035;-48
2024/03/16 08:40:13;;;;;;;4.80;2.85;;;;;;;28.70;41.03;99360.00;5093862;28;20024;-48
2024/03/16 08:42:41;;;;;;;6.43;3.50;;;;;;;28.97;40.04;99366.44;5093785;28;20089;-45
2024/03/16 08:45:07;;;;;;;5.20;2.75;;;;;;;29.28;38.94;99359.22;5092389;28;20520;-48
2024/03/16 08:47:34;;;;;;;9.65;6.65;;;;;;;29.72;37.62;99367.63;5093662;28;20032;-48
2024/03/16 08:50:00;;;;;;;6.18;2.33;;;;;;;29.90;36.48;99363.06;5093917;28;20367;-48
2024/03/16 08:52:26;;;;;;;8.63;4.20;;;;;;;30.17;35.41;99366.69;5093570;28;20074;-48
2024/03/16 08:54:55;;;;;;;5.30;2.55;;;;;;;30.34;34.34;99366.72;5093638;28;20073;-48
2024/03/16 08:57:22;;;;;;;4.72;2.63;;;;;;;29.92;34.18;99379.00;5093542;28;20028;-48
2024/03/16 08:59:48;;;;;;;6.78;2.25;;;;;;;30.02;32.82;99362.47;5093526;28;20475;-47
2024/03/16 09:02:14;;;;;;;5.82;4.32;;;;;;;30.07;32.58;99365.84;5091994;28;20020;-48
2024/03/16 09:04:40;;;;;;;15.80;14.30;;;;;;;28.66;32.93;99384.13;5093429;28;20031;-48
2024/03/16 09:07:05;;;;;;;5.07;2.53;;;;;;;27.17;34.63;99375.19;5093615;28;20529;-48
2024/03/16 09:09:31;;;;;;;7.45;3.08;;;;;;;25.93;36.63;99385.09;5093265;28;20108;-48
2024/03/16 09:11:57;;;;;;;7.00;3.35;;;;;;;24.90;37.75;99392.03;5093134;28;20078;-47
2024/03/16 09:14:23;;;;;;;4.70;2.30;;;;;;;25.63;37.41;99378.91;5093189;28;20028;-48
2024/03/16 09:16:49;;;;;;;8.77;4.63;;;;;;;26.10;35.85;99380.88;5091767;28;20442;-48
2024/03/16 09:19:15;;;;;;;15.52;7.80;;;;;;;25.26;37.25;99391.81;5091827;28;20508;-48
2024/03/16 09:21:40;;;;;;;11.90;5.70;;;;;;;24.97;38.53;99385.53;5092953;28;20024;-47
2024/03/16 09:24:06;;;;;;;12.80;3.58;;;;;;;25.54;37.31;99391.34;5091521;28;20181;-48
2024/03/16 09:26:32;;;;;;;5.55;1.77;;;;;;;26.17;35.59;99391.28;5092989;28;20024;-47
2024/03/16 09:28:58;;;;;;;7.55;3.15;;;;;;;26.51;35.09;99393.84;5091956;28;20024;-48
2024/03/16 09:31:24;;;;;;;13.40;11.48;;;;;;;27.47;33.38;99387.41;5092820;28;20024;-48
2024/03/16 09:33:53;;;;;;;5.88;1.95;;;;;;;27.50;33.32;99394.09;5093086;28;20474;-48
2024/03/16 09:36:19;;;;;;;6.90;2.60;;;;;;;27.82;33.04;99397.88;5092834;28;20024;-48
2024/03/16 09:38:45;;;;;;;8.25;1.77;;;;;;;27.95;32.89;99393.63;5093006;28;20043;-48
2024/03/16 09:41:20;;;;;;;4.32;1.98;;;;;;;27.53;33.24;99398.91;5092982;28;20099;-48
2024/03/16 09:43:47;;;;;;;7.07;1.60;;;;;;;27.10;33.36;99405.22;5091384;28;20027;-48
2024/03/16 09:46:13;;;;;;;7.15;2.40;;;;;;;25.73;35.03;99415.66;5091556;28;20066;-47
2024/03/16 09:48:39;;;;;;;6.00;2.17;;;;;;;24.25;36.95;99412.69;5074466;28;20398;-47
2024/03/16 09:51:05;;;;;;;6.18;3.50;;;;;;;22.92;38.12;99421.47;5091269;28;20402;-47
2024/03/16 09:53:32;;;;;;;6.50;2.42;;;;;;;21.79;39.82;99425.38;5092752;28;20077;-47
2024/03/16 09:56:04;;;;;;;8.23;2.10;;;;;;;20.85;42.61;99432.75;5092365;28;20024;-47
2024/03/16 09:58:32;;;;;;;6.25;1.77;;;;;;;20.43;43.97;99439.41;5091162;28;20565;-47
2024/03/16 10:01:01;;;;;;;8.45;3.75;;;;;;;19.79;46.42;99434.47;5092285;28;20023;-47
2024/03/16 10:03:26;;;;;;;7.18;2.92;;;;;;;19.33;49.12;99453.09;5092506;28;20436;-47
2024/03/16 10:05:52;;;;;;;9.02;4.15;;;;;;;19.09;49.57;99451.59;5092339;28;20016;-46
2024/03/16 10:08:20;;;;;;;5.97;1.98;;;;;;;18.41;51.81;99466.38;5092188;28;20072;-47
2024/03/16 10:10:47;;;;;;;6.93;5.45;;;;;;;17.68;54.44;99479.78;5092140;28;20012;-47
2024/03/16 10:13:14;;;;;;;13.25;8.60;;;;;;;16.97;56.69;99478.72;5092417;28;20394;-47
2024/03/16 10:15:46;;;;;;;4.88;2.47;;;;;;;16.41;59.05;99483.16;5092124;28;20414;-47
2024/03/16 10:18:17;;;;;;;8.45;3.05;;;;;;;15.85;61.09;99490.13;5092052;28;20032;-47
2024/03/16 10:20:43;;;;;;;19.10;15.15;;;;;;;15.44;63.00;99491.38;5092062;28;20032;-47
2024/03/16 10:23:15;;;;;;;7.38;1.90;;;;;;;15.18;64.65;99492.34;5090599;28;20454;-47
2024/03/16 10:25:47;;;;;;;17.55;15.48;;;;;;;15.07;67.23;99485.88;5091901;28;20016;-47
2024/03/16 10:28:16;;;;;;;14.15;9.75;;;;;;;15.15;68.34;99488.28;5092216;28;20023;-47
2024/03/16 10:30:46;;;;;;;94.15;86.22;;;;;;;15.26;69.53;99484.16;5090600;28;20022;-47
2024/03/16 10:33:12;;;;;;;14.77;10.07;;;;;;;15.60;70.40;99478.69;5091933;28;20099;-47
2024/03/16 10:35:41;;;;;;;27.15;24.23;;;;;;;15.91;69.82;99475.22;5090533;28;20028;-47
2024/03/16 10:38:19;;;;;;;19.85;17.85;;;;;;;16.32;68.67;99476.53;5091848;28;20505;-47
2024/03/16 10:40:46;;;;;;;274.98;246.98;;;;;;;16.71;67.24;99471.84;5092071;28;20043;-47
2024/03/16 10:43:13;;;;;;;22.45;20.17;;;;;;;16.78;66.00;99470.75;5091764;28;20055;-47
2024/03/16 10:45:46;;;;;;;4.95;1.92;;;;;;;17.01;65.38;99469.28;5091779;28;20027;-47
2024/03/16 10:48:15;;;;;;;6.10;3.22;;;;;;;17.23;63.85;99476.78;5091752;28;20067;-47
2024/03/16 10:50:48;;;;;;;2.95;2.05;;;;;;;17.34;63.13;99470.69;5090418;28;20036;-47
2024/03/16 10:53:18;;;;;;;5.47;4.15;;;;;;;17.54;62.28;99463.25;5090593;28;20012;-47
2024/03/16 10:55:46;;;;;;;5.47;2.58;;;;;;;17.88;61.42;99463.59;5091708;28;20028;-47
2024/03/16 10:58:25;;;;;;;4.70;3.33;;;;;;;18.16;60.97;99460.25;5094001;28;20495;-47
2024/03/16 11:01:03;;;;;;;2.90;1.10;;;;;;;18.64;58.45;99462.91;5095716;28;20023;-47
2024/03/16 11:03:35;;;;;;;3.42;0.95;;;;;;;18.95;57.18;99457.19;5095695;28;20553;-48
2024/03/16 11:06:12;;;;;;;4.20;1.45;;;;;;;19.21;55.87;99457.66;5095674;28;20416;-48
2024/03/16 11:08:50;;;;;;;4.28;1.10;;;;;;;19.50;55.23;99455.81;5095673;28;20099;-47
2024/03/16 11:11:18;;;;;;;8.63;5.43;;;;;;;19.59;54.50;99448.22;5095553;28;20023;-47
2024/03/16 11:13:58;;;;;;;4.78;1.80;;;;;;;19.87;53.36;99441.25;5095894;28;20103;-47
2024/03/16 11:16:33;;;;;;;7.57;1.52;;;;;;;20.18;51.49;99439.84;5095447;28;20494;-48
2024/03/16 11:19:00;;;;;;;4.17;1.47;;;;;;;20.37;50.78;99447.59;5094275;28;20551;-48
2024/03/16 11:21:27;;;;;;;10.30;2.75;;;;;;;20.65;49.95;99435.97;5095422;28;20268;-48
2024/03/16 11:23:53;;;;;;;35.65;32.03;;;;;;;21.14;49.04;99438.66;5093960;28;20044;-47
2024/03/16 11:26:28;;;;;;;12.20;6.43;;;;;;;21.58;47.54;99451.94;5095302;28;20107;-47